TKU weather

Turku Airport
Turku, Western Finland, Finland

Public forecast

Using degrees Celsius for public forecast. Weather courtesy of forecast.io.

Current aviation weather report (METAR) for Turku Airport

Retrieved 2019/10/23 09:20 UTC (26 minutes ago):

EFTU 230920Z AUTO 27009KT CAVOK 11/06 Q1012

Aviation forecast (TAF) for Turku Airport

Retrieved 2019/10/23 09:42 UTC (4 minutes ago):

TAF EFTU 230831Z 2309/2409 26008KT CAVOK TEMPO 2314/2317 BKN010